sensor_id;sensor_type;location;lat;lon;timestamp;P1;durP1;ratioP1;P2;durP2;ratioP2
55170;SDS011;41060;47.510;8.680;2023-08-01T00:01:40;3.40;;;2.20;;
55170;SDS011;41060;47.510;8.680;2023-08-01T00:04:06;4.88;;;2.50;;
55170;SDS011;41060;47.510;8.680;2023-08-01T00:06:33;4.25;;;2.42;;
55170;SDS011;41060;47.510;8.680;2023-08-01T00:09:00;7.38;;;2.20;;
55170;SDS011;41060;47.510;8.680;2023-08-01T00:11:26;4.90;;;2.30;;
55170;SDS011;41060;47.510;8.680;2023-08-01T00:13:53;5.05;;;2.50;;
55170;SDS011;41060;47.510;8.680;2023-08-01T00:16:21;8.40;;;2.50;;
55170;SDS011;41060;47.510;8.680;2023-08-01T00:18:47;5.20;;;2.47;;
55170;SDS011;41060;47.510;8.680;2023-08-01T00:21:14;6.70;;;2.30;;
55170;SDS011;41060;47.510;8.680;2023-08-01T00:23:42;5.18;;;2.35;;
55170;SDS011;41060;47.510;8.680;2023-08-01T00:26:08;8.52;;;2.17;;
55170;SDS011;41060;47.510;8.680;2023-08-01T00:28:34;3.40;;;2.38;;
55170;SDS011;41060;47.510;8.680;2023-08-01T00:31:04;4.20;;;2.17;;
55170;SDS011;41060;47.510;8.680;2023-08-01T00:33:36;7.45;;;2.22;;
55170;SDS011;41060;47.510;8.680;2023-08-01T00:36:03;4.60;;;2.28;;
55170;SDS011;41060;47.510;8.680;2023-08-01T00:38:34;4.13;;;2.08;;
55170;SDS011;41060;47.510;8.680;2023-08-01T00:41:00;3.90;;;2.15;;
55170;SDS011;41060;47.510;8.680;2023-08-01T00:43:28;3.33;;;2.15;;
55170;SDS011;41060;47.510;8.680;2023-08-01T00:45:56;3.88;;;2.20;;
55170;SDS011;41060;47.510;8.680;2023-08-01T00:48:26;4.65;;;2.47;;
55170;SDS011;41060;47.510;8.680;2023-08-01T00:50:55;5.53;;;2.38;;
55170;SDS011;41060;47.510;8.680;2023-08-01T00:53:22;5.72;;;2.28;;
55170;SDS011;41060;47.510;8.680;2023-08-01T00:55:49;4.25;;;2.40;;
55170;SDS011;41060;47.510;8.680;2023-08-01T00:58:18;3.40;;;2.03;;
55170;SDS011;41060;47.510;8.680;2023-08-01T01:00:44;4.15;;;2.47;;
55170;SDS011;41060;47.510;8.680;2023-08-01T01:03:11;3.85;;;2.50;;
55170;SDS011;41060;47.510;8.680;2023-08-01T01:05:39;7.85;;;2.97;;
55170;SDS011;41060;47.510;8.680;2023-08-01T01:10:43;4.65;;;1.90;;
55170;SDS011;41060;47.510;8.680;2023-08-01T01:13:12;4.32;;;2.25;;
55170;SDS011;41060;47.510;8.680;2023-08-01T01:15:38;4.85;;;2.55;;
55170;SDS011;41060;47.510;8.680;2023-08-01T01:18:05;7.38;;;2.60;;
55170;SDS011;41060;47.510;8.680;2023-08-01T01:20:34;5.35;;;2.78;;
55170;SDS011;41060;47.510;8.680;2023-08-01T01:23:01;7.10;;;2.20;;
55170;SDS011;41060;47.510;8.680;2023-08-01T01:25:30;3.30;;;1.98;;
55170;SDS011;41060;47.510;8.680;2023-08-01T01:27:58;3.90;;;1.85;;
55170;SDS011;41060;47.510;8.680;2023-08-01T01:30:25;4.50;;;2.20;;
55170;SDS011;41060;47.510;8.680;2023-08-01T01:32:53;6.38;;;2.17;;
55170;SDS011;41060;47.510;8.680;2023-08-01T01:35:23;3.38;;;1.80;;
55170;SDS011;41060;47.510;8.680;2023-08-01T01:37:51;4.43;;;1.70;;
55170;SDS011;41060;47.510;8.680;2023-08-01T01:40:18;4.47;;;1.88;;
55170;SDS011;41060;47.510;8.680;2023-08-01T01:42:45;4.97;;;1.80;;
55170;SDS011;41060;47.510;8.680;2023-08-01T01:45:11;3.88;;;1.77;;
55170;SDS011;41060;47.510;8.680;2023-08-01T01:47:39;5.15;;;2.25;;
55170;SDS011;41060;47.510;8.680;2023-08-01T01:50:05;4.55;;;2.05;;
55170;SDS011;41060;47.510;8.680;2023-08-01T01:52:32;5.15;;;2.28;;
55170;SDS011;41060;47.510;8.680;2023-08-01T01:55:01;3.58;;;2.58;;
55170;SDS011;41060;47.510;8.680;2023-08-01T01:57:27;4.30;;;2.05;;
55170;SDS011;41060;47.510;8.680;2023-08-01T01:59:54;4.05;;;2.13;;
55170;SDS011;41060;47.510;8.680;2023-08-01T02:02:21;4.82;;;2.17;;
55170;SDS011;41060;47.510;8.680;2023-08-01T02:04:47;4.43;;;2.63;;
55170;SDS011;41060;47.510;8.680;2023-08-01T02:07:16;4.82;;;2.30;;
55170;SDS011;41060;47.510;8.680;2023-08-01T02:09:43;4.03;;;2.22;;
55170;SDS011;41060;47.510;8.680;2023-08-01T02:12:11;3.63;;;2.25;;
55170;SDS011;41060;47.510;8.680;2023-08-01T02:14:39;4.10;;;2.22;;
55170;SDS011;41060;47.510;8.680;2023-08-01T02:17:06;4.32;;;2.30;;
55170;SDS011;41060;47.510;8.680;2023-08-01T02:19:32;3.30;;;2.08;;
55170;SDS011;41060;47.510;8.680;2023-08-01T02:21:59;5.65;;;2.60;;
55170;SDS011;41060;47.510;8.680;2023-08-01T02:24:26;4.72;;;2.47;;
55170;SDS011;41060;47.510;8.680;2023-08-01T02:26:52;4.60;;;2.47;;
55170;SDS011;41060;47.510;8.680;2023-08-01T02:29:20;3.78;;;1.90;;
55170;SDS011;41060;47.510;8.680;2023-08-01T02:31:47;3.97;;;1.80;;
55170;SDS011;41060;47.510;8.680;2023-08-01T02:34:14;3.95;;;2.50;;
55170;SDS011;41060;47.510;8.680;2023-08-01T02:36:42;5.35;;;2.33;;
55170;SDS011;41060;47.510;8.680;2023-08-01T02:39:09;4.00;;;2.40;;
55170;SDS011;41060;47.510;8.680;2023-08-01T02:41:35;4.22;;;2.22;;
55170;SDS011;41060;47.510;8.680;2023-08-01T02:44:02;4.95;;;2.17;;
55170;SDS011;41060;47.510;8.680;2023-08-01T02:46:31;3.38;;;1.67;;
55170;SDS011;41060;47.510;8.680;2023-08-01T02:48:57;3.40;;;1.75;;
55170;SDS011;41060;47.510;8.680;2023-08-01T02:51:24;3.35;;;1.50;;
55170;SDS011;41060;47.510;8.680;2023-08-01T02:53:53;2.65;;;1.55;;
55170;SDS011;41060;47.510;8.680;2023-08-01T02:56:20;3.60;;;2.00;;
55170;SDS011;41060;47.510;8.680;2023-08-01T02:58:46;4.28;;;1.80;;
55170;SDS011;41060;47.510;8.680;2023-08-01T03:01:14;5.18;;;2.10;;
55170;SDS011;41060;47.510;8.680;2023-08-01T03:03:42;4.20;;;2.10;;
55170;SDS011;41060;47.510;8.680;2023-08-01T03:06:09;4.10;;;1.90;;
55170;SDS011;41060;47.510;8.680;2023-08-01T03:08:36;7.03;;;2.08;;
55170;SDS011;41060;47.510;8.680;2023-08-01T03:11:02;3.08;;;1.48;;
55170;SDS011;41060;47.510;8.680;2023-08-01T03:13:29;4.15;;;2.10;;
55170;SDS011;41060;47.510;8.680;2023-08-01T03:15:56;4.80;;;2.10;;
55170;SDS011;41060;47.510;8.680;2023-08-01T03:18:22;4.10;;;2.03;;
55170;SDS011;41060;47.510;8.680;2023-08-01T03:20:50;4.50;;;1.58;;
55170;SDS011;41060;47.510;8.680;2023-08-01T03:23:18;4.40;;;2.25;;
55170;SDS011;41060;47.510;8.680;2023-08-01T03:25:44;7.68;;;1.95;;
55170;SDS011;41060;47.510;8.680;2023-08-01T03:28:11;4.55;;;1.77;;
55170;SDS011;41060;47.510;8.680;2023-08-01T03:30:38;5.50;;;1.60;;
55170;SDS011;41060;47.510;8.680;2023-08-01T03:33:04;4.13;;;1.83;;
55170;SDS011;41060;47.510;8.680;2023-08-01T03:35:31;6.95;;;2.13;;
55170;SDS011;41060;47.510;8.680;2023-08-01T03:37:59;4.35;;;2.00;;
55170;SDS011;41060;47.510;8.680;2023-08-01T03:40:26;3.17;;;1.73;;
55170;SDS011;41060;47.510;8.680;2023-08-01T03:42:52;3.42;;;1.65;;
55170;SDS011;41060;47.510;8.680;2023-08-01T03:45:19;3.22;;;1.60;;
55170;SDS011;41060;47.510;8.680;2023-08-01T03:47:46;4.07;;;1.63;;
55170;SDS011;41060;47.510;8.680;2023-08-01T03:50:13;5.03;;;2.17;;
55170;SDS011;41060;47.510;8.680;2023-08-01T03:52:42;4.10;;;1.55;;
55170;SDS011;41060;47.510;8.680;2023-08-01T03:55:09;5.45;;;1.83;;
55170;SDS011;41060;47.510;8.680;2023-08-01T03:57:36;4.28;;;1.83;;
55170;SDS011;41060;47.510;8.680;2023-08-01T04:00:04;5.47;;;2.33;;
55170;SDS011;41060;47.510;8.680;2023-08-01T04:02:38;4.40;;;1.50;;
55170;SDS011;41060;47.510;8.680;2023-08-01T04:05:06;3.30;;;1.70;;
55170;SDS011;41060;47.510;8.680;2023-08-01T04:07:36;4.22;;;1.70;;
55170;SDS011;41060;47.510;8.680;2023-08-01T04:10:03;2.70;;;1.80;;
55170;SDS011;41060;47.510;8.680;2023-08-01T04:12:32;4.35;;;1.80;;
55170;SDS011;41060;47.510;8.680;2023-08-01T04:15:00;3.65;;;1.75;;
55170;SDS011;41060;47.510;8.680;2023-08-01T04:17:27;5.90;;;1.85;;
55170;SDS011;41060;47.510;8.680;2023-08-01T04:19:55;2.50;;;1.45;;
55170;SDS011;41060;47.510;8.680;2023-08-01T04:22:21;6.32;;;1.70;;
55170;SDS011;41060;47.510;8.680;2023-08-01T04:24:48;2.47;;;1.27;;
55170;SDS011;41060;47.510;8.680;2023-08-01T04:27:15;3.42;;;1.13;;
55170;SDS011;41060;47.510;8.680;2023-08-01T04:29:43;4.13;;;1.70;;
55170;SDS011;41060;47.510;8.680;2023-08-01T04:32:10;2.45;;;1.25;;
55170;SDS011;41060;47.510;8.680;2023-08-01T04:34:39;2.75;;;1.88;;
55170;SDS011;41060;47.510;8.680;2023-08-01T04:37:06;2.72;;;1.65;;
55170;SDS011;41060;47.510;8.680;2023-08-01T04:39:32;2.83;;;1.27;;
55170;SDS011;41060;47.510;8.680;2023-08-01T04:42:00;2.88;;;1.75;;
55170;SDS011;41060;47.510;8.680;2023-08-01T04:44:26;3.70;;;1.63;;
55170;SDS011;41060;47.510;8.680;2023-08-01T04:46:54;3.40;;;1.20;;
55170;SDS011;41060;47.510;8.680;2023-08-01T04:49:21;2.65;;;1.45;;
55170;SDS011;41060;47.510;8.680;2023-08-01T04:51:49;3.42;;;1.85;;
55170;SDS011;41060;47.510;8.680;2023-08-01T04:54:16;3.72;;;1.40;;
55170;SDS011;41060;47.510;8.680;2023-08-01T04:56:43;3.88;;;1.55;;
55170;SDS011;41060;47.510;8.680;2023-08-01T04:59:10;5.05;;;1.60;;
55170;SDS011;41060;47.510;8.680;2023-08-01T05:01:36;2.83;;;1.42;;
55170;SDS011;41060;47.510;8.680;2023-08-01T05:04:05;4.00;;;1.35;;
55170;SDS011;41060;47.510;8.680;2023-08-01T05:06:31;4.32;;;1.45;;
55170;SDS011;41060;47.510;8.680;2023-08-01T05:08:59;6.72;;;1.70;;
55170;SDS011;41060;47.510;8.680;2023-08-01T05:11:27;4.68;;;1.58;;
55170;SDS011;41060;47.510;8.680;2023-08-01T05:13:53;3.15;;;1.35;;
55170;SDS011;41060;47.510;8.680;2023-08-01T05:16:20;2.67;;;1.20;;
55170;SDS011;41060;47.510;8.680;2023-08-01T05:18:48;4.57;;;1.60;;
55170;SDS011;41060;47.510;8.680;2023-08-01T05:21:15;4.30;;;1.38;;
55170;SDS011;41060;47.510;8.680;2023-08-01T05:23:42;1.88;;;1.10;;
55170;SDS011;41060;47.510;8.680;2023-08-01T05:26:09;4.60;;;1.20;;
55170;SDS011;41060;47.510;8.680;2023-08-01T05:28:35;4.53;;;1.45;;
55170;SDS011;41060;47.510;8.680;2023-08-01T05:31:02;3.90;;;1.35;;
55170;SDS011;41060;47.510;8.680;2023-08-01T05:33:29;3.75;;;1.45;;
55170;SDS011;41060;47.510;8.680;2023-08-01T05:35:56;5.38;;;1.60;;
55170;SDS011;41060;47.510;8.680;2023-08-01T05:38:24;2.13;;;1.23;;
55170;SDS011;41060;47.510;8.680;2023-08-01T05:40:51;3.58;;;1.45;;
55170;SDS011;41060;47.510;8.680;2023-08-01T05:43:18;5.10;;;1.52;;
55170;SDS011;41060;47.510;8.680;2023-08-01T05:45:54;5.85;;;1.63;;
55170;SDS011;41060;47.510;8.680;2023-08-01T05:48:22;3.38;;;1.58;;
55170;SDS011;41060;47.510;8.680;2023-08-01T05:50:49;3.97;;;1.20;;
55170;SDS011;41060;47.510;8.680;2023-08-01T05:53:15;6.38;;;1.92;;
55170;SDS011;41060;47.510;8.680;2023-08-01T05:55:43;2.83;;;1.38;;
55170;SDS011;41060;47.510;8.680;2023-08-01T05:58:10;3.88;;;1.48;;
55170;SDS011;41060;47.510;8.680;2023-08-01T06:00:37;2.35;;;1.00;;
55170;SDS011;41060;47.510;8.680;2023-08-01T06:03:04;3.58;;;1.70;;
55170;SDS011;41060;47.510;8.680;2023-08-01T06:05:30;7.53;;;1.80;;
55170;SDS011;41060;47.510;8.680;2023-08-01T06:07:57;1.67;;;1.00;;
55170;SDS011;41060;47.510;8.680;2023-08-01T06:10:24;5.03;;;1.58;;
55170;SDS011;41060;47.510;8.680;2023-08-01T06:12:52;3.38;;;1.25;;
55170;SDS011;41060;47.510;8.680;2023-08-01T06:15:18;3.63;;;1.17;;
55170;SDS011;41060;47.510;8.680;2023-08-01T06:17:47;2.78;;;1.13;;
55170;SDS011;41060;47.510;8.680;2023-08-01T06:20:13;2.03;;;1.15;;
55170;SDS011;41060;47.510;8.680;2023-08-01T06:22:40;4.97;;;1.25;;
55170;SDS011;41060;47.510;8.680;2023-08-01T06:25:08;3.70;;;1.40;;
55170;SDS011;41060;47.510;8.680;2023-08-01T06:27:34;3.38;;;1.30;;
55170;SDS011;41060;47.510;8.680;2023-08-01T06:30:02;3.85;;;1.10;;
55170;SDS011;41060;47.510;8.680;2023-08-01T06:32:30;3.08;;;1.33;;
55170;SDS011;41060;47.510;8.680;2023-08-01T06:34:56;2.67;;;1.45;;
55170;SDS011;41060;47.510;8.680;2023-08-01T06:37:23;2.70;;;1.40;;
55170;SDS011;41060;47.510;8.680;2023-08-01T06:39:50;2.55;;;1.30;;
55170;SDS011;41060;47.510;8.680;2023-08-01T06:42:16;2.63;;;1.13;;
55170;SDS011;41060;47.510;8.680;2023-08-01T06:44:43;4.22;;;1.63;;
55170;SDS011;41060;47.510;8.680;2023-08-01T06:47:11;2.92;;;1.13;;
55170;SDS011;41060;47.510;8.680;2023-08-01T06:49:38;4.90;;;1.52;;
55170;SDS011;41060;47.510;8.680;2023-08-01T06:52:04;3.83;;;1.30;;
55170;SDS011;41060;47.510;8.680;2023-08-01T06:54:32;3.75;;;1.80;;
55170;SDS011;41060;47.510;8.680;2023-08-01T06:56:58;5.57;;;1.55;;
55170;SDS011;41060;47.510;8.680;2023-08-01T06:59:25;5.20;;;1.83;;
55170;SDS011;41060;47.510;8.680;2023-08-01T07:01:53;4.63;;;1.40;;
55170;SDS011;41060;47.510;8.680;2023-08-01T07:04:21;3.13;;;1.52;;
55170;SDS011;41060;47.510;8.680;2023-08-01T07:06:48;5.88;;;1.77;;
55170;SDS011;41060;47.510;8.680;2023-08-01T07:09:16;3.70;;;2.00;;
55170;SDS011;41060;47.510;8.680;2023-08-01T07:11:42;3.88;;;1.55;;
55170;SDS011;41060;47.510;8.680;2023-08-01T07:14:09;4.65;;;1.30;;
55170;SDS011;41060;47.510;8.680;2023-08-01T07:16:36;3.13;;;1.52;;
55170;SDS011;41060;47.510;8.680;2023-08-01T07:19:04;4.88;;;1.42;;
55170;SDS011;41060;47.510;8.680;2023-08-01T07:21:32;5.22;;;1.77;;
55170;SDS011;41060;47.510;8.680;2023-08-01T07:23:59;3.60;;;1.50;;
55170;SDS011;41060;47.510;8.680;2023-08-01T07:26:25;2.70;;;1.20;;
55170;SDS011;41060;47.510;8.680;2023-08-01T07:28:53;2.72;;;1.50;;
55170;SDS011;41060;47.510;8.680;2023-08-01T07:31:20;6.40;;;1.85;;
55170;SDS011;41060;47.510;8.680;2023-08-01T07:33:47;2.95;;;1.27;;
55170;SDS011;41060;47.510;8.680;2023-08-01T07:36:13;4.30;;;1.67;;
55170;SDS011;41060;47.510;8.680;2023-08-01T07:38:42;3.38;;;1.73;;
55170;SDS011;41060;47.510;8.680;2023-08-01T07:41:08;3.05;;;1.25;;
55170;SDS011;41060;47.510;8.680;2023-08-01T07:43:35;2.45;;;1.48;;
55170;SDS011;41060;47.510;8.680;2023-08-01T07:46:02;5.35;;;1.45;;
55170;SDS011;41060;47.510;8.680;2023-08-01T07:48:28;2.85;;;1.42;;
55170;SDS011;41060;47.510;8.680;2023-08-01T07:50:55;3.65;;;1.45;;
55170;SDS011;41060;47.510;8.680;2023-08-01T07:53:22;2.97;;;1.40;;
55170;SDS011;41060;47.510;8.680;2023-08-01T07:55:51;2.65;;;1.45;;
55170;SDS011;41060;47.510;8.680;2023-08-01T07:58:17;4.07;;;1.48;;
55170;SDS011;41060;47.510;8.680;2023-08-01T08:00:44;5.13;;;1.55;;
55170;SDS011;41060;47.510;8.680;2023-08-01T08:03:11;3.10;;;1.10;;
55170;SDS011;41060;47.510;8.680;2023-08-01T08:05:38;3.67;;;1.77;;
55170;SDS011;41060;47.510;8.680;2023-08-01T08:08:06;3.30;;;1.60;;
55170;SDS011;41060;47.510;8.680;2023-08-01T08:10:32;3.03;;;1.38;;
55170;SDS011;41060;47.510;8.680;2023-08-01T08:13:00;2.95;;;1.65;;
55170;SDS011;41060;47.510;8.680;2023-08-01T08:15:27;2.88;;;1.52;;
55170;SDS011;41060;47.510;8.680;2023-08-01T08:17:58;4.18;;;1.52;;
55170;SDS011;41060;47.510;8.680;2023-08-01T08:20:25;3.20;;;1.58;;
55170;SDS011;41060;47.510;8.680;2023-08-01T08:22:52;2.85;;;1.67;;
55170;SDS011;41060;47.510;8.680;2023-08-01T08:25:18;2.90;;;1.55;;
55170;SDS011;41060;47.510;8.680;2023-08-01T08:27:45;3.72;;;1.35;;
55170;SDS011;41060;47.510;8.680;2023-08-01T08:30:15;3.65;;;1.60;;
55170;SDS011;41060;47.510;8.680;2023-08-01T08:32:42;2.25;;;1.20;;
55170;SDS011;41060;47.510;8.680;2023-08-01T08:35:08;3.92;;;1.50;;
55170;SDS011;41060;47.510;8.680;2023-08-01T08:37:36;3.85;;;1.73;;
55170;SDS011;41060;47.510;8.680;2023-08-01T08:40:03;3.35;;;1.58;;
55170;SDS011;41060;47.510;8.680;2023-08-01T08:42:33;4.32;;;1.73;;
55170;SDS011;41060;47.510;8.680;2023-08-01T08:45:01;4.40;;;1.65;;
55170;SDS011;41060;47.510;8.680;2023-08-01T08:47:29;3.15;;;1.55;;
55170;SDS011;41060;47.510;8.680;2023-08-01T08:50:01;3.70;;;1.75;;
55170;SDS011;41060;47.510;8.680;2023-08-01T08:52:28;3.63;;;1.92;;
55170;SDS011;41060;47.510;8.680;2023-08-01T08:54:55;4.30;;;1.55;;
55170;SDS011;41060;47.510;8.680;2023-08-01T08:57:23;3.38;;;1.13;;
55170;SDS011;41060;47.510;8.680;2023-08-01T08:59:50;3.90;;;1.83;;
55170;SDS011;41060;47.510;8.680;2023-08-01T09:02:18;2.80;;;1.92;;
55170;SDS011;41060;47.510;8.680;2023-08-01T09:04:47;4.45;;;1.70;;
55170;SDS011;41060;47.510;8.680;2023-08-01T09:07:13;4.80;;;1.98;;
55170;SDS011;41060;47.510;8.680;2023-08-01T09:09:46;4.53;;;1.90;;
55170;SDS011;41060;47.510;8.680;2023-08-01T09:12:12;3.80;;;1.90;;
55170;SDS011;41060;47.510;8.680;2023-08-01T09:14:39;3.17;;;1.92;;
55170;SDS011;41060;47.510;8.680;2023-08-01T09:17:08;6.57;;;1.90;;
55170;SDS011;41060;47.510;8.680;2023-08-01T09:19:35;7.00;;;2.70;;
55170;SDS011;41060;47.510;8.680;2023-08-01T09:22:09;4.88;;;1.80;;
55170;SDS011;41060;47.510;8.680;2023-08-01T09:24:37;3.88;;;2.15;;
55170;SDS011;41060;47.510;8.680;2023-08-01T09:27:04;4.38;;;1.50;;
55170;SDS011;41060;47.510;8.680;2023-08-01T09:29:31;3.67;;;1.60;;
55170;SDS011;41060;47.510;8.680;2023-08-01T09:31:58;2.90;;;1.40;;
55170;SDS011;41060;47.510;8.680;2023-08-01T09:34:25;4.13;;;1.35;;
55170;SDS011;41060;47.510;8.680;2023-08-01T09:36:57;4.43;;;1.38;;
55170;SDS011;41060;47.510;8.680;2023-08-01T09:39:27;3.25;;;1.25;;
55170;SDS011;41060;47.510;8.680;2023-08-01T09:41:54;4.47;;;1.80;;
55170;SDS011;41060;47.510;8.680;2023-08-01T09:44:22;3.45;;;1.38;;
55170;SDS011;41060;47.510;8.680;2023-08-01T09:46:54;4.75;;;1.80;;
55170;SDS011;41060;47.510;8.680;2023-08-01T09:49:22;5.65;;;1.80;;
55170;SDS011;41060;47.510;8.680;2023-08-01T09:51:49;4.35;;;1.40;;
55170;SDS011;41060;47.510;8.680;2023-08-01T09:54:16;3.60;;;1.42;;
55170;SDS011;41060;47.510;8.680;2023-08-01T09:56:45;3.25;;;1.23;;
55170;SDS011;41060;47.510;8.680;2023-08-01T09:59:15;3.95;;;1.92;;
55170;SDS011;41060;47.510;8.680;2023-08-01T10:01:46;4.85;;;1.77;;
55170;SDS011;41060;47.510;8.680;2023-08-01T10:04:16;4.32;;;1.58;;
55170;SDS011;41060;47.510;8.680;2023-08-01T10:06:46;3.92;;;1.58;;
55170;SDS011;41060;47.510;8.680;2023-08-01T10:09:16;2.85;;;1.67;;
55170;SDS011;41060;47.510;8.680;2023-08-01T10:11:45;4.30;;;1.55;;
55170;SDS011;41060;47.510;8.680;2023-08-01T10:14:12;3.17;;;1.95;;
55170;SDS011;41060;47.510;8.680;2023-08-01T10:16:40;5.10;;;1.85;;
55170;SDS011;41060;47.510;8.680;2023-08-01T10:19:10;3.97;;;1.67;;
55170;SDS011;41060;47.510;8.680;2023-08-01T10:21:39;3.60;;;1.42;;
55170;SDS011;41060;47.510;8.680;2023-08-01T10:24:08;2.63;;;1.25;;
55170;SDS011;41060;47.510;8.680;2023-08-01T10:26:37;3.17;;;1.27;;
55170;SDS011;41060;47.510;8.680;2023-08-01T10:29:05;3.33;;;1.52;;
55170;SDS011;41060;47.510;8.680;2023-08-01T10:31:32;3.30;;;1.60;;
55170;SDS011;41060;47.510;8.680;2023-08-01T10:34:05;3.20;;;1.42;;
55170;SDS011;41060;47.510;8.680;2023-08-01T10:36:34;3.80;;;1.63;;
55170;SDS011;41060;47.510;8.680;2023-08-01T10:39:01;3.78;;;2.03;;
55170;SDS011;41060;47.510;8.680;2023-08-01T10:41:29;3.30;;;1.67;;
55170;SDS011;41060;47.510;8.680;2023-08-01T10:44:08;3.58;;;1.55;;
55170;SDS011;41060;47.510;8.680;2023-08-01T10:46:47;2.88;;;1.58;;
55170;SDS011;41060;47.510;8.680;2023-08-01T10:49:15;3.00;;;1.58;;
55170;SDS011;41060;47.510;8.680;2023-08-01T10:51:46;2.45;;;1.10;;
55170;SDS011;41060;47.510;8.680;2023-08-01T10:54:20;3.55;;;1.27;;
55170;SDS011;41060;47.510;8.680;2023-08-01T10:56:48;2.70;;;1.13;;
55170;SDS011;41060;47.510;8.680;2023-08-01T10:59:17;5.18;;;1.77;;
55170;SDS011;41060;47.510;8.680;2023-08-01T11:01:44;3.15;;;1.20;;
55170;SDS011;41060;47.510;8.680;2023-08-01T11:04:13;2.00;;;1.08;;
55170;SDS011;41060;47.510;8.680;2023-08-01T11:06:42;2.65;;;1.40;;
55170;SDS011;41060;47.510;8.680;2023-08-01T11:09:14;4.00;;;1.30;;
55170;SDS011;41060;47.510;8.680;2023-08-01T11:11:42;3.67;;;1.20;;
55170;SDS011;41060;47.510;8.680;2023-08-01T11:14:09;2.92;;;1.15;;
55170;SDS011;41060;47.510;8.680;2023-08-01T11:16:39;2.33;;;0.68;;
55170;SDS011;41060;47.510;8.680;2023-08-01T11:19:06;1.20;;;0.73;;
55170;SDS011;41060;47.510;8.680;2023-08-01T11:21:45;1.67;;;0.75;;
55170;SDS011;41060;47.510;8.680;2023-08-01T11:24:15;1.75;;;0.88;;
55170;SDS011;41060;47.510;8.680;2023-08-01T11:26:42;2.20;;;0.80;;
55170;SDS011;41060;47.510;8.680;2023-08-01T11:29:10;1.65;;;0.70;;
55170;SDS011;41060;47.510;8.680;2023-08-01T11:31:39;4.53;;;0.80;;
55170;SDS011;41060;47.510;8.680;2023-08-01T11:34:06;7.20;;;1.02;;
55170;SDS011;41060;47.510;8.680;2023-08-01T11:36:34;0.98;;;0.50;;
55170;SDS011;41060;47.510;8.680;2023-08-01T11:39:04;2.17;;;0.82;;
55170;SDS011;41060;47.510;8.680;2023-08-01T11:41:30;1.88;;;0.63;;
55170;SDS011;41060;47.510;8.680;2023-08-01T11:44:01;1.40;;;0.55;;
55170;SDS011;41060;47.510;8.680;2023-08-01T11:46:32;2.33;;;0.98;;
55170;SDS011;41060;47.510;8.680;2023-08-01T11:49:01;1.42;;;0.60;;
55170;SDS011;41060;47.510;8.680;2023-08-01T11:51:29;1.65;;;0.90;;
55170;SDS011;41060;47.510;8.680;2023-08-01T11:53:59;1.98;;;0.82;;
55170;SDS011;41060;47.510;8.680;2023-08-01T11:56:26;1.77;;;0.80;;
55170;SDS011;41060;47.510;8.680;2023-08-01T11:58:53;1.70;;;0.73;;
55170;SDS011;41060;47.510;8.680;2023-08-01T12:01:20;1.58;;;0.73;;
55170;SDS011;41060;47.510;8.680;2023-08-01T12:03:48;3.83;;;0.82;;
55170;SDS011;41060;47.510;8.680;2023-08-01T12:06:19;2.65;;;0.95;;
55170;SDS011;41060;47.510;8.680;2023-08-01T12:08:47;1.92;;;0.80;;
55170;SDS011;41060;47.510;8.680;2023-08-01T12:11:19;1.65;;;0.73;;
55170;SDS011;41060;47.510;8.680;2023-08-01T12:13:47;1.75;;;0.52;;
55170;SDS011;41060;47.510;8.680;2023-08-01T12:16:14;1.25;;;0.75;;
55170;SDS011;41060;47.510;8.680;2023-08-01T12:18:45;2.85;;;0.60;;
55170;SDS011;41060;47.510;8.680;2023-08-01T12:21:13;1.42;;;0.70;;
55170;SDS011;41060;47.510;8.680;2023-08-01T12:23:41;0.70;;;0.70;;
55170;SDS011;41060;47.510;8.680;2023-08-01T12:26:07;2.83;;;0.70;;
55170;SDS011;41060;47.510;8.680;2023-08-01T12:28:35;1.98;;;1.13;;
55170;SDS011;41060;47.510;8.680;2023-08-01T12:31:01;2.03;;;0.70;;
55170;SDS011;41060;47.510;8.680;2023-08-01T12:33:29;1.73;;;0.88;;
55170;SDS011;41060;47.510;8.680;2023-08-01T12:35:56;0.65;;;0.30;;
55170;SDS011;41060;47.510;8.680;2023-08-01T12:38:23;0.75;;;0.30;;
55170;SDS011;41060;47.510;8.680;2023-08-01T12:40:50;0.75;;;0.30;;
55170;SDS011;41060;47.510;8.680;2023-08-01T12:43:18;1.02;;;0.50;;
55170;SDS011;41060;47.510;8.680;2023-08-01T12:45:45;1.65;;;0.77;;
55170;SDS011;41060;47.510;8.680;2023-08-01T12:48:12;1.38;;;0.68;;
55170;SDS011;41060;47.510;8.680;2023-08-01T12:50:42;0.77;;;0.50;;
55170;SDS011;41060;47.510;8.680;2023-08-01T12:53:10;2.70;;;0.63;;
55170;SDS011;41060;47.510;8.680;2023-08-01T12:55:37;1.52;;;0.60;;
55170;SDS011;41060;47.510;8.680;2023-08-01T12:58:05;1.42;;;0.70;;
55170;SDS011;41060;47.510;8.680;2023-08-01T13:00:32;2.55;;;1.00;;
55170;SDS011;41060;47.510;8.680;2023-08-01T13:02:59;1.40;;;0.73;;
55170;SDS011;41060;47.510;8.680;2023-08-01T13:05:26;1.55;;;0.90;;
55170;SDS011;41060;47.510;8.680;2023-08-01T13:07:52;2.63;;;0.85;;
55170;SDS011;41060;47.510;8.680;2023-08-01T13:10:19;1.45;;;0.65;;
55170;SDS011;41060;47.510;8.680;2023-08-01T13:12:46;1.80;;;0.90;;
55170;SDS011;41060;47.510;8.680;2023-08-01T13:15:14;2.83;;;0.88;;
55170;SDS011;41060;47.510;8.680;2023-08-01T13:17:40;1.42;;;0.73;;
55170;SDS011;41060;47.510;8.680;2023-08-01T13:20:08;3.63;;;0.88;;
55170;SDS011;41060;47.510;8.680;2023-08-01T13:22:34;2.65;;;0.70;;
55170;SDS011;41060;47.510;8.680;2023-08-01T13:25:01;3.17;;;1.10;;
55170;SDS011;41060;47.510;8.680;2023-08-01T13:27:29;2.47;;;1.05;;
55170;SDS011;41060;47.510;8.680;2023-08-01T13:29:56;1.80;;;0.77;;
55170;SDS011;41060;47.510;8.680;2023-08-01T13:32:24;1.50;;;0.73;;
55170;SDS011;41060;47.510;8.680;2023-08-01T13:34:51;3.90;;;0.75;;
55170;SDS011;41060;47.510;8.680;2023-08-01T13:37:18;1.52;;;1.00;;
55170;SDS011;41060;47.510;8.680;2023-08-01T13:39:44;1.40;;;0.70;;
55170;SDS011;41060;47.510;8.680;2023-08-01T13:42:11;1.10;;;0.70;;
55170;SDS011;41060;47.510;8.680;2023-08-01T13:44:38;3.25;;;1.38;;
55170;SDS011;41060;47.510;8.680;2023-08-01T13:47:07;1.75;;;0.85;;
55170;SDS011;41060;47.510;8.680;2023-08-01T13:49:36;1.90;;;0.90;;
55170;SDS011;41060;47.510;8.680;2023-08-01T13:52:03;2.55;;;1.10;;
55170;SDS011;41060;47.510;8.680;2023-08-01T13:54:30;1.70;;;0.77;;
55170;SDS011;41060;47.510;8.680;2023-08-01T13:56:57;3.60;;;0.98;;
55170;SDS011;41060;47.510;8.680;2023-08-01T13:59:23;3.45;;;1.63;;
55170;SDS011;41060;47.510;8.680;2023-08-01T14:01:52;1.88;;;0.90;;
55170;SDS011;41060;47.510;8.680;2023-08-01T14:04:20;1.48;;;0.80;;
55170;SDS011;41060;47.510;8.680;2023-08-01T14:06:48;1.60;;;0.75;;
55170;SDS011;41060;47.510;8.680;2023-08-01T14:09:14;2.08;;;0.77;;
55170;SDS011;41060;47.510;8.680;2023-08-01T14:11:41;0.80;;;0.43;;
55170;SDS011;41060;47.510;8.680;2023-08-01T14:14:08;1.02;;;0.50;;
55170;SDS011;41060;47.510;8.680;2023-08-01T14:16:34;2.75;;;0.70;;
55170;SDS011;41060;47.510;8.680;2023-08-01T14:19:01;1.45;;;0.60;;
55170;SDS011;41060;47.510;8.680;2023-08-01T14:21:29;2.00;;;0.52;;
55170;SDS011;41060;47.510;8.680;2023-08-01T14:23:56;2.53;;;0.57;;
55170;SDS011;41060;47.510;8.680;2023-08-01T14:26:23;1.08;;;0.63;;
55170;SDS011;41060;47.510;8.680;2023-08-01T14:28:50;1.98;;;0.50;;
55170;SDS011;41060;47.510;8.680;2023-08-01T14:31:16;0.90;;;0.60;;
55170;SDS011;41060;47.510;8.680;2023-08-01T14:33:43;1.23;;;0.47;;
55170;SDS011;41060;47.510;8.680;2023-08-01T14:36:10;1.90;;;0.52;;
55170;SDS011;41060;47.510;8.680;2023-08-01T14:38:37;1.02;;;0.40;;
55170;SDS011;41060;47.510;8.680;2023-08-01T14:41:06;1.55;;;0.60;;
55170;SDS011;41060;47.510;8.680;2023-08-01T14:43:32;1.58;;;0.52;;
55170;SDS011;41060;47.510;8.680;2023-08-01T14:45:59;1.33;;;0.50;;
55170;SDS011;41060;47.510;8.680;2023-08-01T14:48:26;1.38;;;0.40;;
55170;SDS011;41060;47.510;8.680;2023-08-01T14:50:53;1.55;;;0.60;;
55170;SDS011;41060;47.510;8.680;2023-08-01T14:53:19;0.90;;;0.40;;